Time;durP1;ratioP1;P1;durP2;ratioP2;P2;SDS_P1;SDS_P2;PMS_P1;PMS_P2;Temp;Humidity;BMP_temperature;BMP_pressure;BME280_temperature;BME280_humidity;BME280_pressure;Samples;Min_cycle;Max_cycle;Signal;HPM_P1;HPM_P2
2022/09/09 00:02:05;;;;;;;4.30;1.80;;;;;;;16.94;100.00;98501.56;5045908;28;20201;-81
2022/09/09 00:04:36;;;;;;;4.90;1.73;;;;;;;16.83;100.00;98499.97;5050838;28;20201;-80
2022/09/09 00:07:07;;;;;;;7.63;2.10;;;;;;;16.85;100.00;98500.66;5051264;28;20228;-81
2022/09/09 00:09:48;;;;;;;6.30;1.80;;;;;;;16.80;100.00;98500.28;5010793;28;20269;-81
2022/09/09 00:12:26;;;;;;;4.40;1.70;;;;;;;16.77;100.00;98496.06;5008412;28;20190;-80
2022/09/09 00:14:57;;;;;;;6.43;2.10;;;;;;;16.74;100.00;98492.88;5010893;28;20191;-80
2022/09/09 00:17:40;;;;;;;6.20;1.90;;;;;;;16.72;100.00;98485.00;5012013;28;20302;-81
2022/09/09 00:20:16;;;;;;;3.30;1.73;;;;;;;16.64;100.00;98495.59;5011108;28;20190;-80
2022/09/09 00:22:53;;;;;;;5.80;2.10;;;;;;;16.71;100.00;98490.50;5013019;28;20274;-80
2022/09/09 00:25:31;;;;;;;3.73;1.60;;;;;;;16.58;100.00;98501.53;5052603;28;20223;-80
2022/09/09 00:28:00;;;;;;;4.80;1.70;;;;;;;16.62;100.00;98499.41;5059505;28;20245;-80
2022/09/09 00:30:36;;;;;;;3.40;1.70;;;;;;;16.57;100.00;98491.84;5088650;28;20207;-81
2022/09/09 00:33:14;;;;;;;4.00;1.80;;;;;;;16.66;100.00;98495.44;5070363;28;20275;-80
2022/09/09 00:35:50;;;;;;;3.37;1.80;;;;;;;16.66;100.00;98490.94;5109437;28;20240;-81
2022/09/09 00:38:24;;;;;;;4.03;1.77;;;;;;;16.65;100.00;98488.41;5104892;28;20289;-81
2022/09/09 00:41:04;;;;;;;2.37;1.63;;;;;;;16.71;100.00;98490.50;5119092;28;20290;-80
2022/09/09 00:43:36;;;;;;;4.87;1.70;;;;;;;16.72;100.00;98487.69;5062959;28;20196;-80
2022/09/09 00:46:35;;;;;;;3.47;1.63;;;;;;;16.74;100.00;98482.16;5036524;28;20641;-81
2022/09/09 00:49:15;;;;;;;3.67;1.70;;;;;;;16.67;100.00;98479.22;5046233;28;20197;-80
2022/09/09 00:51:52;;;;;;;6.00;1.60;;;;;;;16.51;100.00;98484.44;5045988;28;20217;-80
2022/09/09 00:54:32;;;;;;;3.50;1.70;;;;;;;16.53;100.00;98479.78;5054338;28;20279;-81
2022/09/09 00:57:19;;;;;;;6.13;1.70;;;;;;;16.55;100.00;98481.31;5049515;28;20216;-80
2022/09/09 00:59:50;;;;;;;3.03;1.80;;;;;;;16.31;100.00;98487.25;5049166;28;20243;-80
2022/09/09 01:02:29;;;;;;;3.10;1.57;;;;;;;16.45;100.00;98495.72;5104880;27;20218;-80
2022/09/09 01:05:05;;;;;;;5.70;1.50;;;;;;;16.48;100.00;98496.25;5135204;27;20190;-80
2022/09/09 01:07:34;;;;;;;3.33;1.70;;;;;;;16.47;100.00;98491.06;5133072;27;20255;-80
2022/09/09 01:10:08;;;;;;;3.67;1.60;;;;;;;16.41;100.00;98497.03;5137411;27;20194;-80
2022/09/09 01:12:43;;;;;;;4.27;1.70;;;;;;;16.40;100.00;98503.34;5130438;27;20205;-80
2022/09/09 01:15:16;;;;;;;6.03;1.60;;;;;;;16.34;100.00;98496.78;5135347;27;20221;-80
2022/09/09 01:17:55;;;;;;;4.83;1.97;;;;;;;16.33;100.00;98503.13;5132301;27;20279;-80
2022/09/09 01:20:27;;;;;;;3.10;1.80;;;;;;;16.30;100.00;98509.59;5134242;27;20210;-80
2022/09/09 01:23:34;;;;;;;2.93;1.60;;;;;;;16.42;100.00;98502.22;5136995;27;20194;-80
2022/09/09 01:26:24;;;;;;;3.47;1.90;;;;;;;16.51;100.00;98493.31;5134201;27;20194;-80
2022/09/09 01:28:54;;;;;;;5.57;2.60;;;;;;;16.27;100.00;98495.72;5131329;27;20209;-80
2022/09/09 01:31:27;;;;;;;6.00;2.13;;;;;;;16.40;100.00;98504.19;5136061;27;20665;-80
2022/09/09 01:33:56;;;;;;;4.43;2.00;;;;;;;16.21;100.00;98509.66;5097114;27;20258;-81
2022/09/09 01:36:31;;;;;;;4.63;1.83;;;;;;;16.45;100.00;98499.25;5139030;27;20652;-81
2022/09/09 01:39:01;;;;;;;4.90;1.80;;;;;;;16.38;100.00;98498.16;5133463;27;20193;-80
2022/09/09 01:41:31;;;;;;;4.13;1.93;;;;;;;16.28;100.00;98506.25;5133641;27;20190;-80
2022/09/09 01:44:00;;;;;;;4.10;1.70;;;;;;;16.10;100.00;98512.53;5130155;27;20198;-80
2022/09/09 01:46:31;;;;;;;5.87;2.07;;;;;;;16.09;100.00;98521.56;5129046;27;20191;-80
2022/09/09 01:49:01;;;;;;;6.47;2.07;;;;;;;16.13;100.00;98514.94;5133751;27;20191;-80
2022/09/09 01:51:30;;;;;;;4.97;2.10;;;;;;;15.99;100.00;98514.41;5129531;27;20214;-80
2022/09/09 01:53:59;;;;;;;4.07;1.77;;;;;;;16.13;100.00;98517.59;5114984;27;20190;-80
2022/09/09 01:56:41;;;;;;;6.33;2.33;;;;;;;16.07;100.00;98520.88;5083352;27;20206;-80
2022/09/09 01:59:24;;;;;;;4.13;2.03;;;;;;;16.18;100.00;98516.16;5131427;27;20191;-81
2022/09/09 02:02:07;;;;;;;6.00;2.20;;;;;;;15.93;100.00;98524.88;5131970;27;20243;-81
2022/09/09 02:04:40;;;;;;;5.43;2.50;;;;;;;15.97;100.00;98524.41;5131780;27;20206;-80
2022/09/09 02:07:32;;;;;;;4.23;2.20;;;;;;;16.07;100.00;98520.88;5131890;27;20193;-80
2022/09/09 02:10:11;;;;;;;3.93;2.30;;;;;;;16.07;100.00;98519.03;5070488;28;20204;-80
2022/09/09 02:12:47;;;;;;;6.47;2.20;;;;;;;16.06;100.00;98524.53;5049655;28;20242;-81
2022/09/09 02:15:23;;;;;;;4.50;1.80;;;;;;;16.12;100.00;98521.28;5049562;28;20228;-81
2022/09/09 02:17:53;;;;;;;4.97;2.47;;;;;;;15.97;100.00;98524.41;5042565;28;20247;-81
2022/09/09 02:20:24;;;;;;;3.37;2.20;;;;;;;16.09;100.00;98524.22;5045314;28;20205;-80
2022/09/09 02:22:55;;;;;;;5.83;2.47;;;;;;;16.02;100.00;98521.31;5043091;28;20197;-80
2022/09/09 02:25:29;;;;;;;3.40;2.20;;;;;;;15.87;100.00;98525.47;5045541;28;20235;-80
2022/09/09 02:28:01;;;;;;;5.77;2.20;;;;;;;16.05;100.00;98523.69;5050616;28;20197;-80
2022/09/09 02:30:33;;;;;;;6.97;2.10;;;;;;;15.99;100.00;98522.44;5055962;28;20197;-81
2022/09/09 02:33:08;;;;;;;6.93;2.40;;;;;;;15.87;100.00;98526.28;5071448;28;20211;-81
2022/09/09 02:35:37;;;;;;;7.67;2.40;;;;;;;15.91;100.00;98524.16;5069783;28;20199;-81
2022/09/09 02:38:10;;;;;;;8.97;2.33;;;;;;;15.85;100.00;98530.94;5072663;28;20208;-82
2022/09/09 02:40:45;;;;;;;5.53;2.53;;;;;;;15.83;100.00;98532.09;5031208;28;20192;-81
2022/09/09 02:43:18;;;;;;;2.93;1.93;;;;;;;15.96;100.00;98528.09;5028669;28;20298;-81
2022/09/09 02:45:54;;;;;;;5.80;2.30;;;;;;;15.86;100.00;98532.63;5028200;28;20356;-80
2022/09/09 02:48:30;;;;;;;5.13;2.10;;;;;;;15.70;100.00;98529.72;5026100;28;20224;-81
2022/09/09 02:51:07;;;;;;;6.80;2.20;;;;;;;15.66;100.00;98539.03;5023379;28;20225;-81
2022/09/09 02:53:44;;;;;;;6.20;2.23;;;;;;;15.90;100.00;98536.69;5045565;28;20222;-80
2022/09/09 02:56:18;;;;;;;5.50;2.20;;;;;;;15.87;100.00;98536.97;5050936;28;20652;-80
2022/09/09 02:58:49;;;;;;;6.60;2.40;;;;;;;15.89;100.00;98534.16;5068725;28;20298;-81
2022/09/09 03:01:18;;;;;;;4.80;2.57;;;;;;;15.65;100.00;98535.53;5086165;28;20199;-81
2022/09/09 03:03:46;;;;;;;4.47;2.60;;;;;;;15.71;100.00;98547.44;5094172;28;20196;-81
2022/09/09 03:06:14;;;;;;;7.60;2.57;;;;;;;15.79;100.00;98536.88;5087737;28;20187;-81
2022/09/09 03:08:43;;;;;;;5.80;2.40;;;;;;;15.78;100.00;98545.88;5088997;28;20219;-80
2022/09/09 03:11:16;;;;;;;5.10;2.23;;;;;;;15.86;100.00;98537.97;5086735;28;20203;-81
2022/09/09 03:13:45;;;;;;;6.70;2.70;;;;;;;15.86;100.00;98537.13;5091338;28;20204;-81
2022/09/09 03:16:15;;;;;;;6.93;2.63;;;;;;;15.89;100.00;98543.00;5083495;28;20328;-81
2022/09/09 03:18:45;;;;;;;4.53;2.30;;;;;;;15.82;100.00;98538.41;5088053;28;20215;-80
2022/09/09 03:21:15;;;;;;;4.50;2.47;;;;;;;15.71;100.00;98534.91;5118064;27;20191;-81
2022/09/09 03:23:44;;;;;;;4.63;2.30;;;;;;;15.62;100.00;98540.28;5128273;27;20221;-81
2022/09/09 03:26:14;;;;;;;7.40;2.70;;;;;;;15.72;100.00;98538.44;5130626;27;20209;-81
2022/09/09 03:28:44;;;;;;;4.90;2.40;;;;;;;15.76;100.00;98523.81;5130035;27;20235;-80
2022/09/09 03:31:14;;;;;;;5.57;2.57;;;;;;;15.88;100.00;98532.47;5127569;27;20251;-81
2022/09/09 03:33:42;;;;;;;3.73;2.13;;;;;;;15.77;100.00;98528.16;5133093;27;20225;-81
2022/09/09 03:36:11;;;;;;;3.43;2.27;;;;;;;15.65;100.00;98516.84;5129271;27;20221;-80
2022/09/09 03:38:39;;;;;;;6.47;2.60;;;;;;;15.71;100.00;98523.41;5129709;27;20688;-81
2022/09/09 03:41:09;;;;;;;6.53;2.67;;;;;;;15.85;100.00;98520.25;5006968;28;20194;-80
2022/09/09 03:43:38;;;;;;;3.77;2.40;;;;;;;15.83;100.00;98516.06;5007154;28;20225;-81
2022/09/09 03:46:06;;;;;;;3.90;2.33;;;;;;;15.82;100.00;98514.34;4997676;28;20341;-81
2022/09/09 03:48:37;;;;;;;5.73;2.30;;;;;;;15.75;100.00;98506.13;5000788;28;20218;-80
2022/09/09 03:51:06;;;;;;;6.73;2.73;;;;;;;15.69;100.00;98509.38;5007818;28;20245;-80
2022/09/09 03:53:36;;;;;;;4.37;2.67;;;;;;;15.73;100.00;98514.28;5008725;28;20228;-80
2022/09/09 03:56:08;;;;;;;5.90;2.30;;;;;;;15.66;100.00;98515.84;4989649;28;20191;-80
2022/09/09 03:58:37;;;;;;;3.03;2.20;;;;;;;15.80;100.00;98524.34;5005490;28;20261;-81
2022/09/09 04:01:09;;;;;;;5.33;2.67;;;;;;;15.63;100.00;98525.94;5065356;28;20235;-81
2022/09/09 04:03:39;;;;;;;6.37;2.47;;;;;;;15.71;100.00;98526.06;5066592;28;20238;-80
2022/09/09 04:06:11;;;;;;;6.17;2.60;;;;;;;15.69;100.00;98528.88;5089097;28;20205;-81
2022/09/09 04:08:41;;;;;;;6.47;2.60;;;;;;;15.70;100.00;98527.06;5107020;28;20191;-80
2022/09/09 04:11:10;;;;;;;5.57;2.20;;;;;;;15.71;100.00;98526.91;5107540;28;20203;-80
2022/09/09 04:13:41;;;;;;;5.13;2.43;;;;;;;15.71;100.00;98534.91;5099784;28;20830;-81
2022/09/09 04:16:12;;;;;;;5.73;2.30;;;;;;;15.89;100.00;98526.16;5107191;28;20269;-80
2022/09/09 04:18:44;;;;;;;6.17;2.70;;;;;;;16.00;100.00;98524.13;5108316;28;20241;-81
2022/09/09 04:21:13;;;;;;;7.80;2.63;;;;;;;15.97;100.00;98518.25;5130227;27;20235;-81
2022/09/09 04:23:43;;;;;;;3.77;2.50;;;;;;;16.07;100.00;98519.03;5133813;28;20209;-81
2022/09/09 04:26:14;;;;;;;5.60;2.90;;;;;;;15.98;100.00;98515.41;5125154;28;20274;-81
2022/09/09 04:28:42;;;;;;;5.27;2.40;;;;;;;15.90;100.00;98517.13;5123686;28;20225;-81
2022/09/09 04:31:16;;;;;;;4.27;2.27;;;;;;;15.97;100.00;98516.41;5130184;28;20205;-81
2022/09/09 04:33:47;;;;;;;3.93;2.40;;;;;;;15.90;100.00;98520.66;5131496;27;20223;-81
2022/09/09 04:36:21;;;;;;;3.73;2.30;;;;;;;15.91;100.00;98514.31;5132042;27;20267;-81
2022/09/09 04:38:49;;;;;;;2.60;2.10;;;;;;;15.94;100.00;98518.53;5135174;27;20745;-81
2022/09/09 04:41:18;;;;;;;3.37;2.10;;;;;;;15.88;100.00;98516.44;5134021;27;20251;-81
2022/09/09 04:43:46;;;;;;;5.70;2.10;;;;;;;15.82;100.00;98512.53;5134021;27;20205;-80
2022/09/09 04:46:17;;;;;;;6.87;2.40;;;;;;;15.79;100.00;98518.19;5125787;27;20235;-80
2022/09/09 04:48:47;;;;;;;4.60;2.70;;;;;;;15.56;100.00;98523.00;5131623;27;20194;-80
2022/09/09 04:51:24;;;;;;;5.03;2.30;;;;;;;15.50;100.00;98528.91;5135149;27;20237;-80
2022/09/09 04:53:55;;;;;;;3.70;2.30;;;;;;;15.58;100.00;98525.53;5133948;27;20197;-80
2022/09/09 04:56:26;;;;;;;5.20;2.70;;;;;;;15.54;100.00;98525.00;5100422;27;20686;-80
2022/09/09 04:58:57;;;;;;;6.37;2.70;;;;;;;15.63;100.00;98532.16;5132823;27;20246;-80
2022/09/09 05:01:27;;;;;;;5.77;2.60;;;;;;;15.57;100.00;98535.38;5130924;27;20186;-80
2022/09/09 05:03:57;;;;;;;11.63;2.70;;;;;;;15.57;100.00;98527.38;5098294;27;20187;-80
2022/09/09 05:06:31;;;;;;;6.20;3.07;;;;;;;15.67;100.00;98524.69;5132101;27;20190;-80
2022/09/09 05:09:00;;;;;;;6.50;2.70;;;;;;;15.70;100.00;98532.41;5135883;27;20197;-80
2022/09/09 05:11:31;;;;;;;5.37;2.40;;;;;;;15.64;100.00;98533.00;5134142;27;20198;-81
2022/09/09 05:14:01;;;;;;;4.60;2.37;;;;;;;15.76;100.00;98534.50;5128509;27;20205;-80
2022/09/09 05:16:29;;;;;;;5.63;2.93;;;;;;;15.61;100.00;98539.44;5135317;27;20194;-80
2022/09/09 05:18:58;;;;;;;6.07;2.57;;;;;;;15.61;100.00;98546.63;5129836;27;20245;-80
2022/09/09 05:21:29;;;;;;;6.53;2.90;;;;;;;15.62;100.00;98537.63;5132175;27;20194;-80
2022/09/09 05:24:00;;;;;;;6.03;2.77;;;;;;;15.68;100.00;98547.72;5132194;27;20298;-80
2022/09/09 05:26:31;;;;;;;5.50;2.90;;;;;;;15.61;100.00;98555.47;5133856;27;20226;-80
2022/09/09 05:29:00;;;;;;;4.47;2.87;;;;;;;15.57;100.00;98553.22;5113863;28;20229;-80
2022/09/09 05:31:31;;;;;;;6.30;2.73;;;;;;;15.68;100.00;98553.91;5104960;28;20187;-80
2022/09/09 05:33:59;;;;;;;6.60;3.10;;;;;;;15.50;100.00;98544.09;5106999;28;20195;-79
2022/09/09 05:36:30;;;;;;;7.60;2.90;;;;;;;15.70;100.00;98546.59;5104138;28;20187;-80
2022/09/09 05:38:59;;;;;;;4.83;3.17;;;;;;;15.61;100.00;98554.63;5107000;28;20662;-80
2022/09/09 05:41:28;;;;;;;6.43;2.90;;;;;;;15.60;100.00;98553.78;5109910;28;20203;-80
2022/09/09 05:43:58;;;;;;;5.67;2.77;;;;;;;15.44;100.00;98558.84;5093836;28;20187;-80
2022/09/09 05:46:27;;;;;;;9.00;2.90;;;;;;;15.34;100.00;98564.19;5114690;27;20649;-80
2022/09/09 05:48:55;;;;;;;4.97;2.53;;;;;;;15.54;100.00;98557.03;5131926;27;20194;-80
2022/09/09 05:51:26;;;;;;;4.23;2.70;;;;;;;15.70;100.00;98559.09;5031628;28;20218;-80
2022/09/09 05:53:59;;;;;;;8.47;2.97;;;;;;;15.87;100.00;98561.03;5034723;28;20229;-80
2022/09/09 05:56:29;;;;;;;5.93;2.80;;;;;;;15.92;100.00;98563.22;5029167;28;20194;-80
2022/09/09 05:58:59;;;;;;;6.60;2.90;;;;;;;15.69;100.00;98568.94;4996131;28;20197;-80
2022/09/09 06:01:33;;;;;;;6.50;3.17;;;;;;;15.46;100.00;98587.09;5024652;28;20209;-80
2022/09/09 06:04:02;;;;;;;10.97;3.23;;;;;;;15.36;100.00;98588.94;5031189;28;20236;-80
2022/09/09 06:06:36;;;;;;;7.90;3.40;;;;;;;15.39;100.00;98601.16;5028836;28;20233;-80
2022/09/09 06:09:09;;;;;;;7.33;3.20;;;;;;;15.60;100.00;98595.63;5059668;27;20216;-80
2022/09/09 06:11:40;;;;;;;8.53;2.87;;;;;;;15.67;100.00;98599.44;5097540;27;20229;-80
2022/09/09 06:14:10;;;;;;;8.80;3.17;;;;;;;15.71;100.00;98599.00;5129397;27;20190;-80
2022/09/09 06:16:39;;;;;;;6.27;3.20;;;;;;;15.72;100.00;98597.16;5130941;27;20279;-80
2022/09/09 06:19:09;;;;;;;6.63;3.10;;;;;;;15.63;100.00;98606.03;5127936;27;20197;-80
2022/09/09 06:21:38;;;;;;;7.73;2.80;;;;;;;15.71;100.00;98604.34;5133570;27;20222;-80
2022/09/09 06:24:09;;;;;;;5.00;3.23;;;;;;;15.53;100.00;98605.19;5131246;27;20194;-80
2022/09/09 06:26:40;;;;;;;5.83;2.73;;;;;;;15.66;100.00;98614.63;5132572;27;20278;-80
2022/09/09 06:29:10;;;;;;;4.70;2.97;;;;;;;15.63;100.00;98606.91;5135739;27;20191;-79
2022/09/09 06:31:41;;;;;;;8.10;3.13;;;;;;;15.61;100.00;98616.03;5131658;27;20702;-80
2022/09/09 06:34:09;;;;;;;4.83;2.87;;;;;;;15.79;100.00;98613.47;5132385;27;20285;-79
2022/09/09 06:36:39;;;;;;;4.50;2.73;;;;;;;15.93;100.00;98608.53;5132272;27;20183;-80
2022/09/09 06:39:11;;;;;;;7.30;2.90;;;;;;;16.00;100.00;98604.25;5131653;27;20183;-80
2022/09/09 06:41:42;;;;;;;6.97;2.70;;;;;;;16.01;100.00;98602.44;5131276;27;20617;-80
2022/09/09 06:44:13;;;;;;;8.90;2.70;;;;;;;16.14;100.00;98602.94;5129421;27;20218;-80
2022/09/09 06:46:41;;;;;;;6.10;2.87;;;;;;;16.09;100.00;98607.03;5129664;27;20201;-80
2022/09/09 06:49:10;;;;;;;5.77;2.70;;;;;;;16.31;100.00;98612.03;5132054;27;20205;-80
2022/09/09 06:51:42;;;;;;;5.03;2.70;;;;;;;16.27;100.00;98606.13;5130174;27;20275;-80
2022/09/09 06:54:13;;;;;;;4.10;2.30;;;;;;;16.36;100.00;98611.56;5129253;27;20537;-80
2022/09/09 06:56:45;;;;;;;5.10;2.20;;;;;;;16.41;100.00;98607.47;5131759;27;20264;-80
2022/09/09 06:59:14;;;;;;;5.07;2.10;;;;;;;16.40;100.00;98597.75;5134822;27;20224;-80
2022/09/09 07:01:45;;;;;;;5.93;2.50;;;;;;;16.58;100.00;98600.47;5092715;27;20290;-80
2022/09/09 07:04:14;;;;;;;6.97;2.67;;;;;;;16.54;100.00;98591.06;5129835;27;20193;-81
2022/09/09 07:06:44;;;;;;;3.97;2.50;;;;;;;16.72;100.00;98591.13;5127992;27;20190;-80
2022/09/09 07:09:16;;;;;;;4.20;2.43;;;;;;;16.82;100.00;98592.75;5130297;27;20193;-80
2022/09/09 07:11:46;;;;;;;5.87;2.10;;;;;;;16.77;100.00;98584.31;5134996;27;20242;-80
2022/09/09 07:14:15;;;;;;;3.77;2.40;;;;;;;16.88;100.00;98588.63;5127079;27;20200;-80
2022/09/09 07:16:44;;;;;;;7.70;2.97;;;;;;;16.86;100.00;98586.09;5130987;27;20187;-81
2022/09/09 07:19:14;;;;;;;4.00;2.27;;;;;;;17.12;100.00;98588.84;5129843;27;20198;-80
2022/09/09 07:21:43;;;;;;;5.00;2.13;;;;;;;17.20;100.00;98580.06;5131367;27;20213;-80
2022/09/09 07:24:13;;;;;;;4.53;2.30;;;;;;;17.28;100.00;98573.94;5125040;27;20240;-80
2022/09/09 07:26:43;;;;;;;3.60;2.20;;;;;;;17.36;100.00;98579.34;5131455;27;20657;-80
2022/09/09 07:29:13;;;;;;;5.53;2.17;;;;;;;17.27;100.00;98583.78;5135300;27;20194;-80
2022/09/09 07:31:48;;;;;;;4.37;1.77;;;;;;;17.33;100.00;98576.97;5128969;27;20193;-80
2022/09/09 07:34:16;;;;;;;3.97;2.00;;;;;;;17.36;100.00;98566.78;5130341;27;20285;-80
2022/09/09 07:36:46;;;;;;;6.87;2.13;;;;;;;17.50;100.00;98569.91;5111519;28;20187;-80
2022/09/09 07:39:17;;;;;;;3.70;1.70;;;;;;;17.37;100.00;98568.50;5105512;28;20195;-80
2022/09/09 07:41:49;;;;;;;6.50;2.10;;;;;;;17.53;100.00;98566.91;5108928;28;20217;-81
2022/09/09 07:44:21;;;;;;;5.33;2.33;;;;;;;17.51;100.00;98575.13;5107022;28;20268;-81
2022/09/09 07:46:50;;;;;;;4.87;1.63;;;;;;;17.41;100.00;98569.84;5104314;28;20224;-81
2022/09/09 07:49:18;;;;;;;4.30;1.70;;;;;;;17.62;100.00;98571.34;5107141;28;20199;-80
2022/09/09 07:51:54;;;;;;;7.07;2.10;;;;;;;17.78;100.00;98574.16;5106421;28;20732;-81
2022/09/09 07:54:23;;;;;;;4.47;2.00;;;;;;;17.68;100.00;98574.25;5106914;28;20191;-81
2022/09/09 07:56:53;;;;;;;5.17;1.70;;;;;;;17.88;100.00;98571.38;5113557;28;20665;-80
2022/09/09 07:59:23;;;;;;;6.10;2.03;;;;;;;17.77;100.00;98567.13;5112151;28;20214;-80
2022/09/09 08:01:54;;;;;;;5.13;2.00;;;;;;;17.86;100.00;98576.06;5106776;28;20257;-81
2022/09/09 08:04:25;;;;;;;3.47;1.57;;;;;;;17.98;100.00;98575.63;5108985;28;20209;-81
2022/09/09 08:06:55;;;;;;;4.73;2.00;;;;;;;17.95;100.00;98575.94;5108386;28;20183;-81
2022/09/09 08:09:26;;;;;;;9.13;2.40;;;;;;;17.91;100.00;98584.44;5118199;28;20247;-81
2022/09/09 08:11:58;;;;;;;6.73;2.47;;;;;;;17.85;100.00;98580.53;5110119;28;20205;-80
2022/09/09 08:14:26;;;;;;;5.33;2.40;;;;;;;17.99;100.00;98577.28;5114065;28;20348;-81
2022/09/09 08:16:56;;;;;;;4.13;2.10;;;;;;;17.89;100.00;98587.28;5112644;28;20194;-80
2022/09/09 08:19:24;;;;;;;4.27;1.90;;;;;;;18.05;100.00;98588.34;5114705;28;20198;-81
2022/09/09 08:21:53;;;;;;;3.83;2.10;;;;;;;18.09;100.00;98590.56;5115087;28;20215;-80
2022/09/09 08:24:23;;;;;;;3.97;1.90;;;;;;;18.15;100.00;98587.25;5115866;28;20226;-80
2022/09/09 08:26:51;;;;;;;7.57;2.63;;;;;;;18.13;100.00;98597.28;5116732;27;20198;-81
2022/09/09 08:29:21;;;;;;;7.03;2.60;;;;;;;18.23;100.00;98581.06;5075567;28;20236;-81
2022/09/09 08:31:52;;;;;;;5.73;1.93;;;;;;;18.26;100.00;98583.47;5070221;28;20297;-81
2022/09/09 08:34:21;;;;;;;7.50;2.50;;;;;;;18.23;100.00;98589.13;5065012;28;20273;-81
2022/09/09 08:36:52;;;;;;;5.53;2.27;;;;;;;18.47;100.00;98591.09;5073001;28;20193;-81
2022/09/09 08:39:22;;;;;;;9.47;2.67;;;;;;;18.43;100.00;98582.53;5073074;28;20640;-81
2022/09/09 08:42:23;;;;;;;7.07;2.67;;;;;;;18.69;100.00;98584.28;5070727;28;20259;-81
2022/09/09 08:45:17;;;;;;;8.20;2.37;;;;;;;18.74;100.00;98584.66;5074021;28;20193;-80
2022/09/09 08:47:57;;;;;;;7.90;2.13;;;;;;;18.99;100.00;98580.16;5091183;28;20199;-81
2022/09/09 08:50:28;;;;;;;6.27;2.30;;;;;;;19.25;100.00;98591.59;5119457;27;20199;-81
2022/09/09 08:53:03;;;;;;;5.90;2.47;;;;;;;19.17;100.00;98591.59;5134356;27;20182;-80
2022/09/09 08:55:41;;;;;;;4.53;2.30;;;;;;;19.11;100.00;98585.06;5137713;27;20687;-80
2022/09/09 08:58:15;;;;;;;4.63;2.00;;;;;;;18.88;100.00;98581.31;5128498;27;20329;-81
2022/09/09 09:01:01;;;;;;;3.37;2.10;;;;;;;18.94;100.00;98580.66;5132331;27;20206;-81
2022/09/09 09:03:42;;;;;;;6.03;2.23;;;;;;;18.90;100.00;98582.00;5090970;28;20401;-81
2022/09/09 09:06:26;;;;;;;3.67;2.07;;;;;;;18.99;100.00;98583.69;5091494;28;20196;-80
2022/09/09 09:09:02;;;;;;;3.43;1.90;;;;;;;19.02;100.00;98587.91;5091584;28;20187;-81
2022/09/09 09:11:37;;;;;;;5.60;1.97;;;;;;;19.23;100.00;98577.50;5094635;28;20226;-81
2022/09/09 09:14:13;;;;;;;5.97;2.00;;;;;;;19.10;100.00;98577.97;5094031;28;20284;-80
2022/09/09 09:16:52;;;;;;;6.73;1.97;;;;;;;19.21;100.00;98574.16;5088859;28;20257;-80
2022/09/09 09:19:22;;;;;;;5.27;1.90;;;;;;;19.47;100.00;98573.13;5092933;28;20255;-80
2022/09/09 09:21:58;;;;;;;6.70;2.10;;;;;;;19.48;100.00;98567.59;5113010;27;20214;-80
2022/09/09 09:24:42;;;;;;;3.77;1.90;;;;;;;19.71;100.00;98578.53;5114060;28;20247;-80
2022/09/09 09:27:15;;;;;;;4.27;1.80;;;;;;;19.42;100.00;98573.66;5076913;28;20222;-80
2022/09/09 09:29:44;;;;;;;3.57;1.53;;;;;;;19.60;100.00;98566.28;5107833;28;20244;-81
2022/09/09 09:32:38;;;;;;;4.17;1.50;;;;;;;19.84;100.00;98561.84;5114353;28;20298;-81
2022/09/09 09:35:12;;;;;;;5.13;1.73;;;;;;;20.13;100.00;98555.88;5107809;28;20245;-81
2022/09/09 09:37:43;;;;;;;5.20;1.60;;;;;;;20.13;100.00;98567.47;5111926;28;20614;-81
2022/09/09 09:40:33;;;;;;;5.13;1.60;;;;;;;19.88;100.00;98564.03;5113711;28;20277;-80
2022/09/09 09:43:06;;;;;;;4.87;1.60;;;;;;;19.96;100.00;98557.78;5118924;27;20206;-80
2022/09/09 09:45:36;;;;;;;4.53;1.60;;;;;;;19.88;100.00;98550.59;5093199;28;20199;-81
2022/09/09 09:48:09;;;;;;;3.57;1.90;;;;;;;19.81;100.00;98560.34;5077356;28;20253;-81
2022/09/09 09:50:49;;;;;;;6.43;1.90;;;;;;;19.53;100.00;98570.63;5110723;28;20187;-82
2022/09/09 09:53:24;;;;;;;5.53;2.40;;;;;;;19.50;100.00;98562.91;5105240;28;20273;-81
2022/09/09 09:55:59;;;;;;;4.07;2.00;;;;;;;19.59;100.00;98558.38;5109347;28;20212;-81
2022/09/09 09:58:31;;;;;;;8.00;2.20;;;;;;;19.84;100.00;98556.47;5109014;28;20225;-81
2022/09/09 10:00:59;;;;;;;2.67;1.70;;;;;;;20.12;100.00;98563.13;5101274;28;20219;-81
2022/09/09 10:03:31;;;;;;;5.27;1.80;;;;;;;20.28;100.00;98564.91;5117582;27;20700;-81
2022/09/09 10:06:00;;;;;;;6.87;2.20;;;;;;;20.02;100.00;98559.78;5139207;27;20198;-81
2022/09/09 10:08:29;;;;;;;5.03;1.90;;;;;;;20.33;100.00;98570.59;5133549;27;20191;-81
2022/09/09 10:11:10;;;;;;;4.63;1.73;;;;;;;20.18;100.00;98569.66;5128292;27;20198;-80
2022/09/09 10:13:54;;;;;;;3.83;1.60;;;;;;;20.83;100.00;98563.97;5130543;27;20195;-80
2022/09/09 10:16:36;;;;;;;5.13;1.50;;;;;;;20.74;100.00;98575.78;5126524;27;20209;-80
2022/09/09 10:19:14;;;;;;;3.83;1.07;;;;;;;20.76;100.00;98568.41;5129277;27;20210;-80
2022/09/09 10:22:03;;;;;;;5.00;1.50;;;;;;;20.87;100.00;98557.22;5133576;27;20302;-80
2022/09/09 10:24:44;;;;;;;5.23;1.50;;;;;;;21.07;100.00;98553.03;5132095;27;20228;-80
2022/09/09 10:27:21;;;;;;;5.17;1.30;;;;;;;20.69;100.00;98548.59;5123189;27;20210;-81
2022/09/09 10:30:08;;;;;;;2.93;0.93;;;;;;;21.15;100.00;98544.91;5138029;27;20227;-81
2022/09/09 10:32:48;;;;;;;6.57;1.10;;;;;;;20.92;100.00;98541.34;5136870;27;20190;-80
2022/09/09 10:35:28;;;;;;;5.83;1.53;;;;;;;20.70;100.00;98542.19;5095529;28;20198;-81
2022/09/09 10:38:13;;;;;;;2.57;1.10;;;;;;;20.47;100.00;98542.16;5082653;28;20195;-81
2022/09/09 10:41:02;;;;;;;4.73;1.47;;;;;;;20.51;100.00;98535.41;5042179;28;20199;-81
2022/09/09 10:43:47;;;;;;;6.30;1.50;;;;;;;20.68;100.00;98520.84;5088540;28;20265;-80
2022/09/09 10:46:29;;;;;;;3.80;1.27;;;;;;;20.96;100.00;98517.63;5088144;28;20200;-80
2022/09/09 10:49:08;;;;;;;4.30;1.37;;;;;;;21.01;100.00;98520.59;5087338;28;20195;-81
2022/09/09 10:51:49;;;;;;;4.50;1.20;;;;;;;20.98;100.00;98548.72;5086683;28;20245;-80
2022/09/09 10:54:33;;;;;;;3.77;1.47;;;;;;;20.60;100.00;98533.50;5117339;27;20217;-81
2022/09/09 10:57:06;;;;;;;4.83;1.53;;;;;;;20.54;100.00;98524.28;5125981;27;20222;-81
2022/09/09 10:59:38;;;;;;;4.03;1.50;;;;;;;20.35;100.00;98530.06;5125157;27;20193;-81
2022/09/09 11:02:16;;;;;;;2.43;1.10;;;;;;;20.05;100.00;98516.41;5127463;27;20206;-80
2022/09/09 11:04:52;;;;;;;4.43;1.40;;;;;;;19.84;100.00;98511.63;5139805;27;20198;-80
2022/09/09 11:07:29;;;;;;;5.60;1.40;;;;;;;19.70;100.00;98526.63;5126788;27;20208;-80
2022/09/09 11:10:07;;;;;;;3.30;1.40;;;;;;;19.49;100.00;98539.72;5136456;27;20232;-80
2022/09/09 11:12:40;;;;;;;4.87;1.70;;;;;;;19.41;100.00;98545.94;5133766;27;20257;-80
2022/09/09 11:15:21;;;;;;;5.63;1.70;;;;;;;19.45;100.00;98558.03;5129031;27;20190;-80
2022/09/09 11:17:54;;;;;;;4.67;1.60;;;;;;;19.26;100.00;98557.53;5134108;27;20185;-80
2022/09/09 11:20:25;;;;;;;6.97;1.70;;;;;;;19.10;100.00;98566.41;5131917;27;20186;-80
2022/09/09 11:23:00;;;;;;;6.07;2.23;;;;;;;18.66;100.00;98576.59;5128873;27;20286;-81
2022/09/09 11:25:36;;;;;;;4.80;1.80;;;;;;;18.77;100.00;98574.44;5125490;27;20193;-80
2022/09/09 11:28:22;;;;;;;3.90;1.83;;;;;;;18.80;100.00;98573.25;5128681;27;20189;-80
2022/09/09 11:31:04;;;;;;;6.47;2.03;;;;;;;18.37;100.00;98566.25;5133442;27;20186;-81
2022/09/09 11:33:52;;;;;;;5.13;1.80;;;;;;;18.80;100.00;98565.19;5137220;27;20201;-80
2022/09/09 11:36:44;;;;;;;6.37;1.90;;;;;;;19.02;100.00;98561.06;5129582;27;20277;-80
2022/09/09 11:39:45;;;;;;;3.83;1.43;;;;;;;18.78;100.00;98560.00;5132453;27;20201;-80
2022/09/09 11:42:25;;;;;;;4.27;1.60;;;;;;;18.98;100.00;98560.53;5133490;27;20195;-80
2022/09/09 11:44:54;;;;;;;5.73;1.70;;;;;;;18.96;100.00;98561.72;5097736;27;20257;-80
2022/09/09 11:47:29;;;;;;;3.73;1.63;;;;;;;19.23;100.00;98557.88;5132863;27;20198;-80
2022/09/09 11:50:10;;;;;;;2.80;1.43;;;;;;;19.94;100.00;98559.81;5134123;27;20242;-80
2022/09/09 11:53:22;;;;;;;6.53;1.90;;;;;;;20.66;100.00;98557.88;5094459;27;20548;-81
2022/09/09 11:56:11;;;;;;;5.80;1.60;;;;;;;21.16;100.00;98551.13;5090060;28;20188;-81